sensor_id;sensor_type;location;lat;lon;timestamp;P1;durP1;ratioP1;P2;durP2;ratioP2
18082;SDS011;9168;51.194;6.840;2023-03-03T00:01:04;67.40;;;32.27;;
18082;SDS011;9168;51.194;6.840;2023-03-03T00:03:33;68.83;;;32.40;;
18082;SDS011;9168;51.194;6.840;2023-03-03T00:06:00;63.90;;;31.30;;
18082;SDS011;9168;51.194;6.840;2023-03-03T00:08:29;71.63;;;33.83;;
18082;SDS011;9168;51.194;6.840;2023-03-03T00:10:56;67.73;;;34.00;;
18082;SDS011;9168;51.194;6.840;2023-03-03T00:13:25;66.53;;;32.07;;
18082;SDS011;9168;51.194;6.840;2023-03-03T00:15:53;73.50;;;33.47;;
18082;SDS011;9168;51.194;6.840;2023-03-03T00:18:27;69.33;;;34.17;;
18082;SDS011;9168;51.194;6.840;2023-03-03T00:21:00;68.10;;;34.13;;
18082;SDS011;9168;51.194;6.840;2023-03-03T00:23:29;66.57;;;33.13;;
18082;SDS011;9168;51.194;6.840;2023-03-03T00:26:00;67.37;;;31.47;;
18082;SDS011;9168;51.194;6.840;2023-03-03T00:28:28;73.53;;;33.07;;
18082;SDS011;9168;51.194;6.840;2023-03-03T00:30:56;65.27;;;32.40;;
18082;SDS011;9168;51.194;6.840;2023-03-03T00:33:26;71.43;;;31.00;;
18082;SDS011;9168;51.194;6.840;2023-03-03T00:35:57;66.90;;;33.03;;
18082;SDS011;9168;51.194;6.840;2023-03-03T00:38:41;70.43;;;32.70;;
18082;SDS011;9168;51.194;6.840;2023-03-03T00:41:13;70.90;;;34.50;;
18082;SDS011;9168;51.194;6.840;2023-03-03T00:43:45;75.50;;;33.30;;
18082;SDS011;9168;51.194;6.840;2023-03-03T00:46:14;74.57;;;33.93;;
18082;SDS011;9168;51.194;6.840;2023-03-03T00:48:42;72.90;;;33.67;;
18082;SDS011;9168;51.194;6.840;2023-03-03T00:51:13;74.57;;;34.27;;
18082;SDS011;9168;51.194;6.840;2023-03-03T00:53:53;75.13;;;33.17;;
18082;SDS011;9168;51.194;6.840;2023-03-03T00:56:20;77.70;;;34.67;;
18082;SDS011;9168;51.194;6.840;2023-03-03T00:58:47;76.73;;;35.23;;
18082;SDS011;9168;51.194;6.840;2023-03-03T01:01:15;69.60;;;32.73;;
18082;SDS011;9168;51.194;6.840;2023-03-03T01:03:43;75.90;;;34.33;;
18082;SDS011;9168;51.194;6.840;2023-03-03T01:06:10;77.33;;;36.80;;
18082;SDS011;9168;51.194;6.840;2023-03-03T01:08:38;75.40;;;34.87;;
18082;SDS011;9168;51.194;6.840;2023-03-03T01:11:07;75.80;;;34.93;;
18082;SDS011;9168;51.194;6.840;2023-03-03T01:13:38;72.40;;;34.67;;
18082;SDS011;9168;51.194;6.840;2023-03-03T01:16:07;67.87;;;31.37;;
18082;SDS011;9168;51.194;6.840;2023-03-03T01:18:34;71.10;;;32.17;;
18082;SDS011;9168;51.194;6.840;2023-03-03T01:21:02;70.47;;;30.53;;
18082;SDS011;9168;51.194;6.840;2023-03-03T01:23:29;66.20;;;31.10;;
18082;SDS011;9168;51.194;6.840;2023-03-03T01:25:56;73.77;;;32.83;;
18082;SDS011;9168;51.194;6.840;2023-03-03T01:28:24;68.20;;;31.90;;
18082;SDS011;9168;51.194;6.840;2023-03-03T01:30:51;73.17;;;31.40;;
18082;SDS011;9168;51.194;6.840;2023-03-03T01:33:19;72.43;;;33.97;;
18082;SDS011;9168;51.194;6.840;2023-03-03T01:35:46;69.73;;;32.90;;
18082;SDS011;9168;51.194;6.840;2023-03-03T01:38:13;68.37;;;31.93;;
18082;SDS011;9168;51.194;6.840;2023-03-03T01:40:40;71.67;;;32.53;;
18082;SDS011;9168;51.194;6.840;2023-03-03T01:43:07;68.23;;;32.43;;
18082;SDS011;9168;51.194;6.840;2023-03-03T01:45:41;76.10;;;34.53;;
18082;SDS011;9168;51.194;6.840;2023-03-03T01:48:27;69.37;;;32.60;;
18082;SDS011;9168;51.194;6.840;2023-03-03T01:50:57;74.10;;;33.67;;
18082;SDS011;9168;51.194;6.840;2023-03-03T01:53:29;73.90;;;34.23;;
18082;SDS011;9168;51.194;6.840;2023-03-03T01:55:59;71.63;;;33.73;;
18082;SDS011;9168;51.194;6.840;2023-03-03T01:58:28;80.70;;;35.57;;
18082;SDS011;9168;51.194;6.840;2023-03-03T02:01:00;70.80;;;32.17;;
18082;SDS011;9168;51.194;6.840;2023-03-03T02:03:30;65.70;;;30.33;;
18082;SDS011;9168;51.194;6.840;2023-03-03T02:05:59;71.50;;;31.10;;
18082;SDS011;9168;51.194;6.840;2023-03-03T02:08:29;67.70;;;31.33;;
18082;SDS011;9168;51.194;6.840;2023-03-03T02:11:02;68.57;;;31.07;;
18082;SDS011;9168;51.194;6.840;2023-03-03T02:13:29;70.83;;;31.43;;
18082;SDS011;9168;51.194;6.840;2023-03-03T02:15:56;75.00;;;32.83;;
18082;SDS011;9168;51.194;6.840;2023-03-03T02:18:25;72.90;;;31.50;;
18082;SDS011;9168;51.194;6.840;2023-03-03T02:20:53;68.50;;;29.60;;
18082;SDS011;9168;51.194;6.840;2023-03-03T02:23:25;69.20;;;31.67;;
18082;SDS011;9168;51.194;6.840;2023-03-03T02:26:06;71.63;;;30.67;;
18082;SDS011;9168;51.194;6.840;2023-03-03T02:28:35;65.07;;;29.17;;
18082;SDS011;9168;51.194;6.840;2023-03-03T02:31:04;75.17;;;31.73;;
18082;SDS011;9168;51.194;6.840;2023-03-03T02:33:34;68.27;;;30.87;;
18082;SDS011;9168;51.194;6.840;2023-03-03T02:36:01;69.17;;;30.77;;
18082;SDS011;9168;51.194;6.840;2023-03-03T02:38:29;67.43;;;29.83;;
18082;SDS011;9168;51.194;6.840;2023-03-03T02:41:03;72.07;;;30.93;;
18082;SDS011;9168;51.194;6.840;2023-03-03T02:43:38;70.83;;;32.47;;
18082;SDS011;9168;51.194;6.840;2023-03-03T02:46:09;75.50;;;31.17;;
18082;SDS011;9168;51.194;6.840;2023-03-03T02:48:36;71.00;;;30.70;;
18082;SDS011;9168;51.194;6.840;2023-03-03T02:51:03;72.67;;;30.20;;
18082;SDS011;9168;51.194;6.840;2023-03-03T02:53:30;74.37;;;31.83;;
18082;SDS011;9168;51.194;6.840;2023-03-03T02:55:57;72.97;;;32.40;;
18082;SDS011;9168;51.194;6.840;2023-03-03T02:58:25;77.27;;;32.57;;
18082;SDS011;9168;51.194;6.840;2023-03-03T03:00:52;74.30;;;30.37;;
18082;SDS011;9168;51.194;6.840;2023-03-03T03:03:19;76.83;;;31.70;;
18082;SDS011;9168;51.194;6.840;2023-03-03T03:05:46;76.77;;;32.93;;
18082;SDS011;9168;51.194;6.840;2023-03-03T03:08:13;77.83;;;34.80;;
18082;SDS011;9168;51.194;6.840;2023-03-03T03:10:40;76.63;;;33.67;;
18082;SDS011;9168;51.194;6.840;2023-03-03T03:13:07;70.77;;;31.03;;
18082;SDS011;9168;51.194;6.840;2023-03-03T03:15:35;71.87;;;31.20;;
18082;SDS011;9168;51.194;6.840;2023-03-03T03:18:02;71.93;;;30.83;;
18082;SDS011;9168;51.194;6.840;2023-03-03T03:20:29;73.13;;;32.17;;
18082;SDS011;9168;51.194;6.840;2023-03-03T03:22:56;68.37;;;29.57;;
18082;SDS011;9168;51.194;6.840;2023-03-03T03:25:22;73.97;;;31.63;;
18082;SDS011;9168;51.194;6.840;2023-03-03T03:27:49;74.00;;;33.10;;
18082;SDS011;9168;51.194;6.840;2023-03-03T03:30:16;74.77;;;31.57;;
18082;SDS011;9168;51.194;6.840;2023-03-03T03:32:46;73.50;;;32.10;;
18082;SDS011;9168;51.194;6.840;2023-03-03T03:35:13;76.47;;;32.47;;
18082;SDS011;9168;51.194;6.840;2023-03-03T03:37:41;71.97;;;31.90;;
18082;SDS011;9168;51.194;6.840;2023-03-03T03:40:08;76.57;;;31.40;;
18082;SDS011;9168;51.194;6.840;2023-03-03T03:42:36;72.93;;;32.23;;
18082;SDS011;9168;51.194;6.840;2023-03-03T03:45:05;73.97;;;32.10;;
18082;SDS011;9168;51.194;6.840;2023-03-03T03:47:33;64.77;;;30.17;;
18082;SDS011;9168;51.194;6.840;2023-03-03T03:50:01;68.40;;;29.90;;
18082;SDS011;9168;51.194;6.840;2023-03-03T03:52:28;69.67;;;31.30;;
18082;SDS011;9168;51.194;6.840;2023-03-03T03:54:55;68.33;;;31.37;;
18082;SDS011;9168;51.194;6.840;2023-03-03T03:57:22;70.20;;;32.07;;
18082;SDS011;9168;51.194;6.840;2023-03-03T03:59:48;73.97;;;32.27;;
18082;SDS011;9168;51.194;6.840;2023-03-03T04:02:16;67.67;;;29.97;;
18082;SDS011;9168;51.194;6.840;2023-03-03T04:04:43;69.07;;;30.03;;
18082;SDS011;9168;51.194;6.840;2023-03-03T04:07:11;68.60;;;30.73;;
18082;SDS011;9168;51.194;6.840;2023-03-03T04:09:38;67.63;;;31.47;;
18082;SDS011;9168;51.194;6.840;2023-03-03T04:12:05;72.80;;;31.60;;
18082;SDS011;9168;51.194;6.840;2023-03-03T04:14:32;73.30;;;32.27;;
18082;SDS011;9168;51.194;6.840;2023-03-03T04:16:59;74.37;;;31.77;;
18082;SDS011;9168;51.194;6.840;2023-03-03T04:19:25;77.17;;;32.37;;
18082;SDS011;9168;51.194;6.840;2023-03-03T04:21:52;73.03;;;32.00;;
18082;SDS011;9168;51.194;6.840;2023-03-03T04:24:21;76.27;;;32.00;;
18082;SDS011;9168;51.194;6.840;2023-03-03T04:26:47;74.00;;;32.20;;
18082;SDS011;9168;51.194;6.840;2023-03-03T04:29:14;76.23;;;31.30;;
18082;SDS011;9168;51.194;6.840;2023-03-03T04:31:41;81.50;;;35.43;;
18082;SDS011;9168;51.194;6.840;2023-03-03T04:34:08;79.00;;;32.67;;
18082;SDS011;9168;51.194;6.840;2023-03-03T04:36:35;79.33;;;33.43;;
18082;SDS011;9168;51.194;6.840;2023-03-03T04:39:02;78.17;;;32.80;;
18082;SDS011;9168;51.194;6.840;2023-03-03T04:41:30;73.37;;;33.33;;
18082;SDS011;9168;51.194;6.840;2023-03-03T04:43:57;74.80;;;32.03;;
18082;SDS011;9168;51.194;6.840;2023-03-03T04:46:23;79.33;;;33.40;;
18082;SDS011;9168;51.194;6.840;2023-03-03T04:48:50;81.23;;;34.67;;
18082;SDS011;9168;51.194;6.840;2023-03-03T04:51:17;75.60;;;33.57;;
18082;SDS011;9168;51.194;6.840;2023-03-03T04:53:44;88.27;;;35.57;;
18082;SDS011;9168;51.194;6.840;2023-03-03T04:56:11;87.90;;;37.20;;
18082;SDS011;9168;51.194;6.840;2023-03-03T04:58:39;87.17;;;36.57;;
18082;SDS011;9168;51.194;6.840;2023-03-03T05:01:06;94.73;;;37.73;;
18082;SDS011;9168;51.194;6.840;2023-03-03T05:03:35;92.67;;;38.87;;
18082;SDS011;9168;51.194;6.840;2023-03-03T05:06:02;95.00;;;38.67;;
18082;SDS011;9168;51.194;6.840;2023-03-03T05:08:29;88.50;;;37.43;;
18082;SDS011;9168;51.194;6.840;2023-03-03T05:10:56;93.43;;;39.23;;
18082;SDS011;9168;51.194;6.840;2023-03-03T05:13:24;119.73;;;45.93;;
18082;SDS011;9168;51.194;6.840;2023-03-03T05:15:53;114.70;;;46.40;;
18082;SDS011;9168;51.194;6.840;2023-03-03T05:18:21;128.30;;;46.93;;
18082;SDS011;9168;51.194;6.840;2023-03-03T05:20:49;122.73;;;48.37;;
18082;SDS011;9168;51.194;6.840;2023-03-03T05:23:17;132.10;;;48.47;;
18082;SDS011;9168;51.194;6.840;2023-03-03T05:25:44;121.43;;;47.60;;
18082;SDS011;9168;51.194;6.840;2023-03-03T05:28:12;125.83;;;48.50;;
18082;SDS011;9168;51.194;6.840;2023-03-03T05:30:39;124.73;;;47.10;;
18082;SDS011;9168;51.194;6.840;2023-03-03T05:33:09;127.60;;;47.70;;
18082;SDS011;9168;51.194;6.840;2023-03-03T05:35:38;118.37;;;45.87;;
18082;SDS011;9168;51.194;6.840;2023-03-03T05:38:05;124.97;;;46.10;;
18082;SDS011;9168;51.194;6.840;2023-03-03T05:40:32;127.07;;;47.23;;
18082;SDS011;9168;51.194;6.840;2023-03-03T05:42:59;122.97;;;47.07;;
18082;SDS011;9168;51.194;6.840;2023-03-03T05:45:26;126.57;;;46.00;;
18082;SDS011;9168;51.194;6.840;2023-03-03T05:47:53;127.70;;;45.40;;
18082;SDS011;9168;51.194;6.840;2023-03-03T05:50:21;126.93;;;45.63;;
18082;SDS011;9168;51.194;6.840;2023-03-03T05:52:49;124.43;;;46.23;;
18082;SDS011;9168;51.194;6.840;2023-03-03T05:55:16;121.47;;;46.10;;
18082;SDS011;9168;51.194;6.840;2023-03-03T05:57:43;119.90;;;45.30;;
18082;SDS011;9168;51.194;6.840;2023-03-03T06:00:11;123.53;;;44.53;;
18082;SDS011;9168;51.194;6.840;2023-03-03T06:02:39;122.10;;;46.13;;
18082;SDS011;9168;51.194;6.840;2023-03-03T06:05:07;128.13;;;47.50;;
18082;SDS011;9168;51.194;6.840;2023-03-03T06:07:35;127.43;;;47.20;;
18082;SDS011;9168;51.194;6.840;2023-03-03T06:10:03;130.53;;;47.23;;
18082;SDS011;9168;51.194;6.840;2023-03-03T06:12:30;127.37;;;46.90;;
18082;SDS011;9168;51.194;6.840;2023-03-03T06:14:57;123.03;;;45.37;;
18082;SDS011;9168;51.194;6.840;2023-03-03T06:17:24;125.33;;;46.80;;
18082;SDS011;9168;51.194;6.840;2023-03-03T06:19:51;122.83;;;46.63;;
18082;SDS011;9168;51.194;6.840;2023-03-03T06:22:18;127.33;;;46.73;;
18082;SDS011;9168;51.194;6.840;2023-03-03T06:24:46;121.90;;;45.07;;
18082;SDS011;9168;51.194;6.840;2023-03-03T06:27:13;124.40;;;43.93;;
18082;SDS011;9168;51.194;6.840;2023-03-03T06:29:40;110.03;;;41.90;;
18082;SDS011;9168;51.194;6.840;2023-03-03T06:32:07;122.27;;;43.77;;
18082;SDS011;9168;51.194;6.840;2023-03-03T06:34:33;123.63;;;42.23;;
18082;SDS011;9168;51.194;6.840;2023-03-03T06:37:00;111.77;;;43.37;;
18082;SDS011;9168;51.194;6.840;2023-03-03T06:39:27;112.63;;;42.23;;
18082;SDS011;9168;51.194;6.840;2023-03-03T06:41:55;108.43;;;41.97;;
18082;SDS011;9168;51.194;6.840;2023-03-03T06:44:22;101.87;;;38.53;;
18082;SDS011;9168;51.194;6.840;2023-03-03T06:46:49;103.00;;;39.50;;
18082;SDS011;9168;51.194;6.840;2023-03-03T06:49:17;103.90;;;37.77;;
18082;SDS011;9168;51.194;6.840;2023-03-03T06:51:44;106.60;;;38.40;;
18082;SDS011;9168;51.194;6.840;2023-03-03T06:54:11;104.77;;;38.93;;
18082;SDS011;9168;51.194;6.840;2023-03-03T06:56:39;100.33;;;37.67;;
18082;SDS011;9168;51.194;6.840;2023-03-03T06:59:10;106.60;;;37.43;;
18082;SDS011;9168;51.194;6.840;2023-03-03T07:01:39;100.43;;;38.03;;
18082;SDS011;9168;51.194;6.840;2023-03-03T07:04:09;99.60;;;36.77;;
18082;SDS011;9168;51.194;6.840;2023-03-03T07:06:41;91.17;;;35.70;;
18082;SDS011;9168;51.194;6.840;2023-03-03T07:09:09;102.90;;;38.77;;
18082;SDS011;9168;51.194;6.840;2023-03-03T07:11:45;106.17;;;36.83;;
18082;SDS011;9168;51.194;6.840;2023-03-03T07:14:14;101.47;;;36.70;;
18082;SDS011;9168;51.194;6.840;2023-03-03T07:16:43;93.40;;;36.10;;
18082;SDS011;9168;51.194;6.840;2023-03-03T07:19:13;98.77;;;37.33;;
18082;SDS011;9168;51.194;6.840;2023-03-03T07:21:44;100.60;;;35.27;;
18082;SDS011;9168;51.194;6.840;2023-03-03T07:24:15;100.57;;;38.13;;
18082;SDS011;9168;51.194;6.840;2023-03-03T07:26:50;93.43;;;35.07;;
18082;SDS011;9168;51.194;6.840;2023-03-03T07:29:20;96.87;;;36.10;;
18082;SDS011;9168;51.194;6.840;2023-03-03T07:31:50;93.07;;;35.50;;
18082;SDS011;9168;51.194;6.840;2023-03-03T07:34:19;90.40;;;33.33;;
18082;SDS011;9168;51.194;6.840;2023-03-03T07:36:47;97.87;;;34.37;;
18082;SDS011;9168;51.194;6.840;2023-03-03T07:39:20;85.87;;;32.57;;
18082;SDS011;9168;51.194;6.840;2023-03-03T07:41:54;88.67;;;33.40;;
18082;SDS011;9168;51.194;6.840;2023-03-03T07:44:27;93.40;;;35.00;;
18082;SDS011;9168;51.194;6.840;2023-03-03T07:47:00;81.87;;;32.93;;
18082;SDS011;9168;51.194;6.840;2023-03-03T07:49:40;88.73;;;34.00;;
18082;SDS011;9168;51.194;6.840;2023-03-03T07:52:16;84.27;;;32.77;;
18082;SDS011;9168;51.194;6.840;2023-03-03T07:54:53;77.43;;;30.63;;
18082;SDS011;9168;51.194;6.840;2023-03-03T07:57:22;79.87;;;30.73;;
18082;SDS011;9168;51.194;6.840;2023-03-03T07:59:52;81.33;;;31.57;;
18082;SDS011;9168;51.194;6.840;2023-03-03T08:02:34;88.50;;;31.10;;
18082;SDS011;9168;51.194;6.840;2023-03-03T08:05:22;88.57;;;31.50;;
18082;SDS011;9168;51.194;6.840;2023-03-03T08:07:54;76.40;;;30.00;;
18082;SDS011;9168;51.194;6.840;2023-03-03T08:10:33;75.47;;;30.17;;
18082;SDS011;9168;51.194;6.840;2023-03-03T08:13:08;83.17;;;29.43;;
18082;SDS011;9168;51.194;6.840;2023-03-03T08:15:43;76.00;;;30.00;;
18082;SDS011;9168;51.194;6.840;2023-03-03T08:21:00;71.50;;;28.83;;
18082;SDS011;9168;51.194;6.840;2023-03-03T08:23:31;77.07;;;29.17;;
18082;SDS011;9168;51.194;6.840;2023-03-03T08:25:58;73.33;;;29.00;;
18082;SDS011;9168;51.194;6.840;2023-03-03T08:28:25;70.87;;;28.10;;
18082;SDS011;9168;51.194;6.840;2023-03-03T08:30:53;76.10;;;28.40;;
18082;SDS011;9168;51.194;6.840;2023-03-03T08:33:20;68.33;;;28.27;;
18082;SDS011;9168;51.194;6.840;2023-03-03T08:35:47;67.17;;;27.73;;
18082;SDS011;9168;51.194;6.840;2023-03-03T08:38:15;71.60;;;28.33;;
18082;SDS011;9168;51.194;6.840;2023-03-03T08:40:43;64.73;;;26.07;;
18082;SDS011;9168;51.194;6.840;2023-03-03T08:43:11;64.13;;;26.67;;
18082;SDS011;9168;51.194;6.840;2023-03-03T08:45:41;66.73;;;25.90;;
18082;SDS011;9168;51.194;6.840;2023-03-03T08:48:10;68.33;;;26.67;;
18082;SDS011;9168;51.194;6.840;2023-03-03T08:50:38;72.73;;;27.47;;
18082;SDS011;9168;51.194;6.840;2023-03-03T08:53:05;79.80;;;28.33;;
18082;SDS011;9168;51.194;6.840;2023-03-03T08:55:32;74.43;;;29.50;;
18082;SDS011;9168;51.194;6.840;2023-03-03T08:57:59;84.80;;;32.00;;
18082;SDS011;9168;51.194;6.840;2023-03-03T09:00:26;86.90;;;33.23;;
18082;SDS011;9168;51.194;6.840;2023-03-03T09:02:53;94.53;;;35.80;;
18082;SDS011;9168;51.194;6.840;2023-03-03T09:05:22;85.57;;;33.27;;
18082;SDS011;9168;51.194;6.840;2023-03-03T09:07:50;82.33;;;32.77;;
18082;SDS011;9168;51.194;6.840;2023-03-03T09:10:18;88.90;;;35.40;;
18082;SDS011;9168;51.194;6.840;2023-03-03T09:12:52;90.80;;;35.90;;
18082;SDS011;9168;51.194;6.840;2023-03-03T09:15:22;84.07;;;32.60;;
18082;SDS011;9168;51.194;6.840;2023-03-03T09:17:51;86.23;;;32.27;;
18082;SDS011;9168;51.194;6.840;2023-03-03T09:23:23;87.47;;;32.47;;
18082;SDS011;9168;51.194;6.840;2023-03-03T09:25:57;85.10;;;31.77;;
18082;SDS011;9168;51.194;6.840;2023-03-03T09:28:39;91.07;;;33.83;;
18082;SDS011;9168;51.194;6.840;2023-03-03T09:31:08;84.97;;;32.60;;
18082;SDS011;9168;51.194;6.840;2023-03-03T09:33:47;88.30;;;35.53;;
18082;SDS011;9168;51.194;6.840;2023-03-03T09:36:20;90.53;;;33.03;;
18082;SDS011;9168;51.194;6.840;2023-03-03T09:38:50;78.97;;;32.47;;
18082;SDS011;9168;51.194;6.840;2023-03-03T09:41:28;80.77;;;33.80;;
18082;SDS011;9168;51.194;6.840;2023-03-03T09:44:43;87.43;;;33.03;;
18082;SDS011;9168;51.194;6.840;2023-03-03T09:47:27;86.20;;;32.50;;
18082;SDS011;9168;51.194;6.840;2023-03-03T09:50:08;81.43;;;31.60;;
18082;SDS011;9168;51.194;6.840;2023-03-03T09:52:47;82.07;;;29.73;;
18082;SDS011;9168;51.194;6.840;2023-03-03T09:55:21;82.40;;;31.47;;
18082;SDS011;9168;51.194;6.840;2023-03-03T09:58:03;85.67;;;31.50;;
18082;SDS011;9168;51.194;6.840;2023-03-03T10:00:42;83.63;;;30.80;;
18082;SDS011;9168;51.194;6.840;2023-03-03T10:06:14;85.57;;;30.90;;
18082;SDS011;9168;51.194;6.840;2023-03-03T10:08:56;91.27;;;33.17;;
18082;SDS011;9168;51.194;6.840;2023-03-03T10:11:37;84.57;;;30.50;;
18082;SDS011;9168;51.194;6.840;2023-03-03T10:14:19;83.90;;;30.87;;
18082;SDS011;9168;51.194;6.840;2023-03-03T10:17:05;81.17;;;31.13;;
18082;SDS011;9168;51.194;6.840;2023-03-03T10:19:45;84.80;;;31.20;;
18082;SDS011;9168;51.194;6.840;2023-03-03T10:22:23;85.27;;;31.33;;
18082;SDS011;9168;51.194;6.840;2023-03-03T10:25:07;87.70;;;31.97;;
18082;SDS011;9168;51.194;6.840;2023-03-03T10:39:53;87.57;;;30.63;;
18082;SDS011;9168;51.194;6.840;2023-03-03T10:43:10;90.97;;;33.43;;
18082;SDS011;9168;51.194;6.840;2023-03-03T10:46:09;90.80;;;32.73;;
18082;SDS011;9168;51.194;6.840;2023-03-03T10:49:18;82.13;;;30.47;;
18082;SDS011;9168;51.194;6.840;2023-03-03T10:55:37;91.50;;;33.90;;
18082;SDS011;9168;51.194;6.840;2023-03-03T10:59:02;96.27;;;33.90;;
18082;SDS011;9168;51.194;6.840;2023-03-03T11:01:42;87.80;;;31.97;;
18082;SDS011;9168;51.194;6.840;2023-03-03T11:07:45;80.17;;;31.00;;
18082;SDS011;9168;51.194;6.840;2023-03-03T11:10:20;89.67;;;32.40;;
18082;SDS011;9168;51.194;6.840;2023-03-03T11:12:59;92.37;;;34.40;;
18082;SDS011;9168;51.194;6.840;2023-03-03T11:15:42;89.27;;;32.03;;
18082;SDS011;9168;51.194;6.840;2023-03-03T11:18:20;100.33;;;34.90;;
18082;SDS011;9168;51.194;6.840;2023-03-03T11:20:58;98.40;;;34.60;;
18082;SDS011;9168;51.194;6.840;2023-03-03T11:23:44;95.80;;;35.67;;
18082;SDS011;9168;51.194;6.840;2023-03-03T11:26:28;105.00;;;34.57;;
18082;SDS011;9168;51.194;6.840;2023-03-03T11:29:09;91.23;;;35.30;;
18082;SDS011;9168;51.194;6.840;2023-03-03T12:10:01;95.23;;;34.03;;
18082;SDS011;9168;51.194;6.840;2023-03-03T12:12:50;90.70;;;31.53;;
18082;SDS011;9168;51.194;6.840;2023-03-03T12:15:32;83.53;;;31.73;;
18082;SDS011;9168;51.194;6.840;2023-03-03T12:18:08;84.67;;;32.60;;
18082;SDS011;9168;51.194;6.840;2023-03-03T12:24:17;83.40;;;31.67;;
18082;SDS011;9168;51.194;6.840;2023-03-03T12:29:49;85.80;;;29.27;;
18082;SDS011;9168;51.194;6.840;2023-03-03T12:32:28;79.77;;;29.07;;
18082;SDS011;9168;51.194;6.840;2023-03-03T12:35:11;95.60;;;32.77;;
18082;SDS011;9168;51.194;6.840;2023-03-03T12:37:46;83.80;;;29.80;;
18082;SDS011;9168;51.194;6.840;2023-03-03T12:40:18;78.30;;;28.27;;
18082;SDS011;9168;51.194;6.840;2023-03-03T12:42:48;85.10;;;29.77;;
18082;SDS011;9168;51.194;6.840;2023-03-03T12:45:32;80.27;;;30.43;;
18082;SDS011;9168;51.194;6.840;2023-03-03T12:48:06;80.23;;;28.13;;
18082;SDS011;9168;51.194;6.840;2023-03-03T12:50:38;81.60;;;29.13;;
18082;SDS011;9168;51.194;6.840;2023-03-03T12:53:19;78.10;;;28.90;;
18082;SDS011;9168;51.194;6.840;2023-03-03T12:55:54;79.23;;;27.80;;
18082;SDS011;9168;51.194;6.840;2023-03-03T12:58:29;71.60;;;26.43;;
18082;SDS011;9168;51.194;6.840;2023-03-03T13:01:08;83.40;;;27.97;;
18082;SDS011;9168;51.194;6.840;2023-03-03T13:03:47;77.47;;;28.07;;
18082;SDS011;9168;51.194;6.840;2023-03-03T13:06:25;75.67;;;26.67;;
18082;SDS011;9168;51.194;6.840;2023-03-03T13:08:57;75.87;;;26.87;;
18082;SDS011;9168;51.194;6.840;2023-03-03T13:11:44;72.40;;;26.30;;
18082;SDS011;9168;51.194;6.840;2023-03-03T13:14:22;74.63;;;27.30;;
18082;SDS011;9168;51.194;6.840;2023-03-03T13:17:01;72.47;;;26.27;;
18082;SDS011;9168;51.194;6.840;2023-03-03T13:19:36;69.27;;;25.70;;
18082;SDS011;9168;51.194;6.840;2023-03-03T13:22:08;68.63;;;25.70;;
18082;SDS011;9168;51.194;6.840;2023-03-03T13:24:44;67.53;;;24.73;;
18082;SDS011;9168;51.194;6.840;2023-03-03T13:33:59;60.77;;;22.27;;
18082;SDS011;9168;51.194;6.840;2023-03-03T13:36:29;56.10;;;21.13;;
18082;SDS011;9168;51.194;6.840;2023-03-03T13:39:09;57.83;;;21.90;;
18082;SDS011;9168;51.194;6.840;2023-03-03T13:41:43;61.90;;;23.67;;
18082;SDS011;9168;51.194;6.840;2023-03-03T13:44:15;58.20;;;22.27;;
18082;SDS011;9168;51.194;6.840;2023-03-03T13:46:53;65.17;;;23.13;;
18082;SDS011;9168;51.194;6.840;2023-03-03T13:49:34;52.87;;;20.77;;
18082;SDS011;9168;51.194;6.840;2023-03-03T13:52:14;61.53;;;22.77;;
18082;SDS011;9168;51.194;6.840;2023-03-03T13:54:58;53.23;;;21.60;;
18082;SDS011;9168;51.194;6.840;2023-03-03T13:57:44;55.67;;;21.93;;
18082;SDS011;9168;51.194;6.840;2023-03-03T14:00:22;63.83;;;23.23;;
18082;SDS011;9168;51.194;6.840;2023-03-03T14:03:14;55.67;;;21.67;;
18082;SDS011;9168;51.194;6.840;2023-03-03T14:06:02;54.97;;;21.77;;
18082;SDS011;9168;51.194;6.840;2023-03-03T14:08:36;60.90;;;24.63;;
18082;SDS011;9168;51.194;6.840;2023-03-03T14:11:18;57.80;;;23.27;;
18082;SDS011;9168;51.194;6.840;2023-03-03T14:13:51;54.67;;;22.00;;
18082;SDS011;9168;51.194;6.840;2023-03-03T14:16:31;55.10;;;21.27;;
18082;SDS011;9168;51.194;6.840;2023-03-03T14:19:08;54.40;;;20.00;;
18082;SDS011;9168;51.194;6.840;2023-03-03T14:21:39;60.20;;;22.10;;
18082;SDS011;9168;51.194;6.840;2023-03-03T14:24:14;55.70;;;20.97;;
18082;SDS011;9168;51.194;6.840;2023-03-03T14:26:47;58.37;;;22.23;;
18082;SDS011;9168;51.194;6.840;2023-03-03T14:29:19;58.17;;;22.23;;
18082;SDS011;9168;51.194;6.840;2023-03-03T14:31:54;53.03;;;21.25;;
18082;SDS011;9168;51.194;6.840;2023-03-03T14:34:29;53.13;;;22.42;;
18082;SDS011;9168;51.194;6.840;2023-03-03T14:37:20;60.33;;;22.97;;
18082;SDS011;9168;51.194;6.840;2023-03-03T14:39:50;58.97;;;23.20;;
18082;SDS011;9168;51.194;6.840;2023-03-03T14:42:32;59.43;;;23.67;;
18082;SDS011;9168;51.194;6.840;2023-03-03T14:45:12;56.35;;;21.75;;
18082;SDS011;9168;51.194;6.840;2023-03-03T14:47:46;56.17;;;22.35;;
18082;SDS011;9168;51.194;6.840;2023-03-03T14:50:33;57.22;;;23.85;;
18082;SDS011;9168;51.194;6.840;2023-03-03T14:53:13;51.95;;;20.38;;
18082;SDS011;9168;51.194;6.840;2023-03-03T14:55:45;54.95;;;22.33;;
18082;SDS011;9168;51.194;6.840;2023-03-03T14:58:26;54.60;;;21.48;;
18082;SDS011;9168;51.194;6.840;2023-03-03T15:01:07;55.33;;;21.73;;
18082;SDS011;9168;51.194;6.840;2023-03-03T15:03:44;52.80;;;21.77;;
18082;SDS011;9168;51.194;6.840;2023-03-03T15:06:25;53.47;;;21.02;;
18082;SDS011;9168;51.194;6.840;2023-03-03T15:09:26;51.72;;;21.52;;
18082;SDS011;9168;51.194;6.840;2023-03-03T15:11:58;50.22;;;21.75;;
18082;SDS011;9168;51.194;6.840;2023-03-03T15:14:31;58.38;;;22.30;;
18082;SDS011;9168;51.194;6.840;2023-03-03T15:19:55;52.05;;;21.48;;
18082;SDS011;9168;51.194;6.840;2023-03-03T15:22:44;47.90;;;21.70;;
18082;SDS011;9168;51.194;6.840;2023-03-03T15:25:14;53.75;;;23.45;;
18082;SDS011;9168;51.194;6.840;2023-03-03T15:28:04;58.33;;;23.13;;
18082;SDS011;9168;51.194;6.840;2023-03-03T15:30:43;53.45;;;22.70;;
18082;SDS011;9168;51.194;6.840;2023-03-03T15:33:17;58.38;;;23.77;;
18082;SDS011;9168;51.194;6.840;2023-03-03T15:35:51;54.17;;;22.80;;
18082;SDS011;9168;51.194;6.840;2023-03-03T15:38:26;53.00;;;22.30;;
18082;SDS011;9168;51.194;6.840;2023-03-03T15:41:04;51.25;;;22.50;;
18082;SDS011;9168;51.194;6.840;2023-03-03T15:43:39;55.67;;;24.23;;
18082;SDS011;9168;51.194;6.840;2023-03-03T15:46:19;48.90;;;22.38;;
18082;SDS011;9168;51.194;6.840;2023-03-03T15:48:54;49.17;;;21.35;;
18082;SDS011;9168;51.194;6.840;2023-03-03T15:51:41;46.25;;;21.85;;
18082;SDS011;9168;51.194;6.840;2023-03-03T15:54:27;47.42;;;20.35;;
18082;SDS011;9168;51.194;6.840;2023-03-03T15:57:02;47.20;;;22.27;;
18082;SDS011;9168;51.194;6.840;2023-03-03T16:02:38;46.53;;;22.35;;
18082;SDS011;9168;51.194;6.840;2023-03-03T16:05:15;43.47;;;19.88;;
18082;SDS011;9168;51.194;6.840;2023-03-03T16:07:50;45.75;;;20.58;;
18082;SDS011;9168;51.194;6.840;2023-03-03T16:10:26;41.63;;;19.83;;
18082;SDS011;9168;51.194;6.840;2023-03-03T16:13:03;38.38;;;19.52;;
18082;SDS011;9168;51.194;6.840;2023-03-03T16:15:57;45.05;;;21.60;;
18082;SDS011;9168;51.194;6.840;2023-03-03T16:18:38;46.25;;;22.15;;
18082;SDS011;9168;51.194;6.840;2023-03-03T16:21:17;43.67;;;21.10;;
18082;SDS011;9168;51.194;6.840;2023-03-03T16:23:49;45.40;;;20.67;;
18082;SDS011;9168;51.194;6.840;2023-03-03T16:26:21;46.17;;;21.67;;
18082;SDS011;9168;51.194;6.840;2023-03-03T16:29:10;48.10;;;21.40;;
18082;SDS011;9168;51.194;6.840;2023-03-03T16:31:49;48.78;;;22.35;;